Terminal Aerodrome Forecast
Issued by NWS

Home | Current Version | Previous Version | Text Only | Print | Product List | Glossary On
Versions: 1 2 3 4 5 6 7 8 9 10 11 12 13 14 15 16 17 18 19 20 21 22 23 24 25 26 27 28 29 30 31 32 33 34 35 36
894
FTUS44 KOHX 192320
TAFCKV
TAF
KCKV 192320Z 2000/2024 15005KT 6SM -RA BR SCT004 BKN050 OVC090
      TEMPO 2000/2004 3SM -RA BR OVC004
     FM200400 20006KT 3SM BR OVC011
     FM200900 22006KT 3SM BR BKN003
     FM201500 20007KT P6SM BKN005
     FM202100 19009KT P6SM BKN045=

USA.gov is the U.S. government's official web portal to all federal, state and local government web resources and services.